Time;durP1;ratioP1;P1;durP2;ratioP2;P2;SDS_P1;SDS_P2;PMS_P1;PMS_P2;Temp;Humidity;BMP_temperature;BMP_pressure;BME280_temperature;BME280_humidity;BME280_pressure;Samples;Min_cycle;Max_cycle;Signal;HPM_P1;HPM_P2
2024/03/03 00:00:33;;;;;;;23.30;17.60;;;16.00;55.60;;;;;;5009371;28;20204;-61
2024/03/03 00:02:58;;;;;;;24.73;18.67;;;15.90;56.00;;;;;;5006739;28;20461;-59
2024/03/03 00:05:24;;;;;;;24.87;17.77;;;15.90;55.80;;;;;;5005209;28;20577;-62
2024/03/03 00:07:49;;;;;;;32.90;22.50;;;15.90;55.80;;;;;;5002071;28;20380;-61
2024/03/03 00:10:15;;;;;;;25.77;17.03;;;15.70;55.90;;;;;;5003349;28;20266;-61
2024/03/03 00:12:40;;;;;;;26.17;19.90;;;15.60;56.90;;;;;;5001968;28;20266;-60
2024/03/03 00:15:07;;;;;;;29.77;19.83;;;15.80;56.50;;;;;;5007702;28;20213;-60
2024/03/03 00:17:32;;;;;;;23.33;16.60;;;15.90;55.70;;;;;;5009927;28;20213;-59
2024/03/03 00:19:58;;;;;;;23.37;17.07;;;15.90;56.00;;;;;;5007962;28;20803;-61
2024/03/03 00:22:23;;;;;;;27.43;19.30;;;16.00;56.10;;;;;;5004880;28;20352;-61
2024/03/03 00:24:49;;;;;;;29.00;20.03;;;16.20;55.70;;;;;;5002388;28;20190;-61
2024/03/03 00:27:14;;;;;;;28.23;20.77;;;16.40;55.20;;;;;;5002005;28;20705;-58
2024/03/03 00:29:40;;;;;;;28.47;19.20;;;16.60;54.70;;;;;;5002879;28;20729;-61
2024/03/03 00:32:06;;;;;;;27.43;19.80;;;16.70;53.90;;;;;;5001702;28;20665;-59
2024/03/03 00:34:31;;;;;;;29.73;20.23;;;16.70;53.80;;;;;;5002365;28;20913;-61
2024/03/03 00:36:57;;;;;;;27.90;19.47;;;16.70;53.60;;;;;;5002626;28;20206;-60
2024/03/03 00:39:22;;;;;;;27.33;20.63;;;16.70;53.80;;;;;;5002880;28;20186;-61
2024/03/03 00:41:48;;;;;;;27.77;20.30;;;16.70;54.00;;;;;;5003803;28;20209;-60
2024/03/03 00:44:13;;;;;;;24.70;18.40;;;16.80;53.70;;;;;;5008596;28;20204;-61
2024/03/03 00:46:39;;;;;;;22.07;16.30;;;16.60;53.70;;;;;;5009175;28;20728;-59
2024/03/03 00:49:05;;;;;;;28.07;19.73;;;16.60;54.00;;;;;;5009918;28;20186;-60
2024/03/03 00:51:30;;;;;;;30.13;19.43;;;16.70;54.10;;;;;;5006837;28;20240;-62
2024/03/03 00:53:56;;;;;;;26.53;19.90;;;16.70;53.60;;;;;;5006026;28;20709;-59
2024/03/03 00:56:21;;;;;;;32.07;22.30;;;16.80;53.20;;;;;;5001726;28;20232;-62
2024/03/03 00:58:47;;;;;;;27.30;20.50;;;16.80;53.50;;;;;;5002160;28;20204;-61
2024/03/03 01:01:14;;;;;;;29.07;20.37;;;16.80;53.30;;;;;;5000482;28;20658;-61
2024/03/03 01:03:40;;;;;;;26.20;19.67;;;16.80;53.10;;;;;;5001738;28;20182;-60
2024/03/03 01:06:06;;;;;;;27.47;19.13;;;16.80;53.00;;;;;;4999952;28;20583;-59
2024/03/03 01:08:32;;;;;;;25.80;19.87;;;16.80;53.00;;;;;;5002201;28;20516;-60
2024/03/03 01:10:57;;;;;;;26.33;19.80;;;16.80;53.10;;;;;;5002408;28;20232;-62
2024/03/03 01:13:23;;;;;;;27.20;18.90;;;16.80;53.00;;;;;;5009565;28;20216;-59
2024/03/03 01:15:48;;;;;;;32.13;20.80;;;16.80;52.90;;;;;;5001183;28;20292;-60
2024/03/03 01:18:14;;;;;;;26.10;18.20;;;16.80;52.90;;;;;;5009402;28;20186;-60
2024/03/03 01:20:40;;;;;;;25.03;18.37;;;16.70;53.20;;;;;;5008616;28;20189;-61
2024/03/03 01:23:05;;;;;;;26.77;18.10;;;16.70;53.30;;;;;;5009191;28;20216;-61
2024/03/03 01:25:31;;;;;;;28.70;20.03;;;16.70;53.40;;;;;;5006725;28;20186;-59
2024/03/03 01:27:56;;;;;;;27.97;19.90;;;16.60;53.20;;;;;;5008049;28;20213;-61
2024/03/03 01:30:22;;;;;;;26.77;19.47;;;16.60;53.00;;;;;;5008412;28;20224;-60
2024/03/03 01:32:48;;;;;;;25.70;19.67;;;16.60;52.80;;;;;;5007137;28;20259;-60
2024/03/03 01:35:13;;;;;;;29.37;20.53;;;16.60;52.40;;;;;;5007564;28;20706;-61
2024/03/03 01:37:39;;;;;;;23.60;18.10;;;16.60;52.50;;;;;;5008343;28;20211;-58
2024/03/03 01:40:05;;;;;;;27.13;20.00;;;16.60;52.80;;;;;;5008941;28;20255;-60
2024/03/03 01:42:31;;;;;;;26.80;19.07;;;16.60;52.90;;;;;;5008574;28;20178;-58
2024/03/03 01:44:57;;;;;;;24.67;18.47;;;16.60;53.00;;;;;;5007147;28;20471;-59
2024/03/03 01:47:22;;;;;;;29.00;20.10;;;16.60;53.20;;;;;;5004393;28;20209;-60
2024/03/03 01:49:52;;;;;;;26.13;20.37;;;16.60;53.20;;;;;;5001845;28;20194;-61
2024/03/03 01:52:17;;;;;;;31.07;20.23;;;16.50;53.00;;;;;;5001636;28;20808;-60
2024/03/03 01:54:44;;;;;;;27.00;20.30;;;16.20;53.00;;;;;;5000777;28;20568;-59
2024/03/03 01:57:15;;;;;;;26.83;21.03;;;16.10;54.00;;;;;;5002514;28;20233;-60
2024/03/03 01:59:41;;;;;;;27.00;19.67;;;16.20;53.80;;;;;;5002132;28;20507;-59
2024/03/03 02:02:07;;;;;;;26.80;20.00;;;16.20;53.40;;;;;;5001593;28;20839;-59
2024/03/03 02:04:34;;;;;;;24.70;17.50;;;16.30;53.80;;;;;;5000362;28;20794;-61
2024/03/03 02:07:01;;;;;;;25.83;18.87;;;16.40;53.50;;;;;;5000904;28;20475;-61
2024/03/03 02:09:27;;;;;;;29.63;19.20;;;16.40;53.20;;;;;;5005518;28;20448;-61
2024/03/03 02:11:53;;;;;;;28.60;20.60;;;16.40;52.80;;;;;;5002144;28;20441;-59
2024/03/03 02:14:18;;;;;;;26.87;19.87;;;16.40;52.60;;;;;;5001105;28;20209;-60
2024/03/03 02:16:45;;;;;;;29.47;20.57;;;16.30;52.50;;;;;;5000468;28;20237;-59
2024/03/03 02:19:10;;;;;;;29.00;21.70;;;16.30;52.70;;;;;;5000665;28;20719;-59
2024/03/03 02:21:36;;;;;;;22.60;17.60;;;16.30;52.60;;;;;;5000442;28;20428;-59
2024/03/03 02:24:02;;;;;;;25.50;20.23;;;16.20;52.80;;;;;;5000345;28;20627;-60
2024/03/03 02:26:28;;;;;;;24.97;19.30;;;16.20;53.20;;;;;;5001369;28;20582;-59
2024/03/03 02:28:54;;;;;;;28.23;19.53;;;16.20;52.80;;;;;;5001455;28;20495;-61
2024/03/03 02:31:20;;;;;;;27.63;19.57;;;16.20;52.00;;;;;;5004807;28;20444;-61
2024/03/03 02:33:46;;;;;;;25.20;18.43;;;16.10;51.80;;;;;;5004958;28;20186;-58
2024/03/03 02:36:12;;;;;;;24.93;18.63;;;15.90;52.00;;;;;;5004514;28;20226;-60
2024/03/03 02:38:42;;;;;;;22.90;16.70;;;15.90;52.40;;;;;;5003713;28;20452;-60
2024/03/03 02:41:08;;;;;;;23.23;16.60;;;15.90;53.00;;;;;;5007304;28;21359;-59
2024/03/03 02:43:34;;;;;;;27.90;20.37;;;15.90;53.90;;;;;;5006829;28;20940;-57
2024/03/03 02:45:59;;;;;;;25.50;17.40;;;15.90;53.70;;;;;;5009866;28;20439;-59
2024/03/03 02:48:25;;;;;;;22.53;16.50;;;15.90;53.30;;;;;;5017311;28;20178;-61
2024/03/03 02:50:50;;;;;;;26.13;17.37;;;16.00;53.60;;;;;;5009910;28;20240;-60
2024/03/03 02:53:16;;;;;;;22.33;16.03;;;15.90;53.70;;;;;;5010207;28;20214;-57
2024/03/03 02:55:42;;;;;;;23.97;17.90;;;15.90;53.70;;;;;;5009324;28;20739;-60
2024/03/03 02:58:07;;;;;;;23.60;16.73;;;15.80;53.60;;;;;;5006792;28;20269;-62
2024/03/03 03:00:34;;;;;;;22.70;17.00;;;15.80;54.10;;;;;;5009030;28;20726;-60
2024/03/03 03:02:59;;;;;;;24.60;17.63;;;15.80;53.80;;;;;;5003385;28;20199;-59
2024/03/03 03:05:25;;;;;;;22.23;17.50;;;15.80;53.50;;;;;;5004183;28;20445;-57
2024/03/03 03:07:50;;;;;;;32.23;19.70;;;15.80;53.50;;;;;;5004451;28;20650;-58
2024/03/03 03:10:16;;;;;;;25.73;19.07;;;15.70;53.40;;;;;;5005773;28;20532;-58
2024/03/03 03:12:42;;;;;;;24.53;16.60;;;15.80;53.60;;;;;;5006526;28;20179;-58
2024/03/03 03:15:07;;;;;;;22.97;15.77;;;15.80;53.70;;;;;;5009830;28;20214;-60
2024/03/03 03:17:33;;;;;;;24.13;18.23;;;15.50;53.80;;;;;;5006953;28;20285;-60
2024/03/03 03:19:59;;;;;;;24.30;16.90;;;15.50;54.30;;;;;;5010343;28;20269;-59
2024/03/03 03:22:24;;;;;;;25.67;19.50;;;15.30;54.20;;;;;;5011858;28;20712;-58
2024/03/03 03:24:50;;;;;;;22.13;16.63;;;15.30;54.70;;;;;;5011262;28;20563;-58
2024/03/03 03:27:15;;;;;;;26.33;15.97;;;15.10;55.00;;;;;;5013818;28;20199;-60
2024/03/03 03:29:41;;;;;;;21.17;17.47;;;14.70;55.60;;;;;;5008589;28;20559;-64
2024/03/03 03:32:07;;;;;;;24.37;17.50;;;14.50;56.50;;;;;;5006444;28;20187;-57
2024/03/03 03:34:33;;;;;;;23.20;17.13;;;14.60;56.40;;;;;;5011079;28;20613;-57
2024/03/03 03:36:58;;;;;;;21.97;16.60;;;14.90;55.40;;;;;;5008434;28;20295;-58
2024/03/03 03:39:24;;;;;;;24.83;17.10;;;14.90;55.40;;;;;;5011776;28;20189;-58
2024/03/03 03:41:50;;;;;;;22.70;16.53;;;14.80;55.50;;;;;;5009606;28;20204;-63
2024/03/03 03:44:18;;;;;;;22.30;15.90;;;15.00;55.40;;;;;;5006655;28;20185;-60
2024/03/03 03:46:44;;;;;;;22.03;16.83;;;15.10;55.00;;;;;;5006862;28;20798;-61
2024/03/03 03:49:11;;;;;;;28.40;18.63;;;15.10;55.10;;;;;;5010661;28;20431;-58
2024/03/03 03:51:37;;;;;;;25.47;17.70;;;15.20;54.50;;;;;;5010428;28;20461;-59
2024/03/03 03:54:03;;;;;;;25.30;18.20;;;15.30;54.10;;;;;;5009919;28;20429;-57
2024/03/03 03:56:30;;;;;;;27.13;18.37;;;15.30;53.90;;;;;;5009133;28;20481;-58
2024/03/03 03:58:55;;;;;;;19.77;15.77;;;15.40;53.50;;;;;;5007690;28;20413;-58
2024/03/03 04:01:21;;;;;;;25.10;19.40;;;15.50;53.10;;;;;;5009602;28;20444;-58
2024/03/03 04:03:47;;;;;;;27.47;18.60;;;15.50;53.60;;;;;;5009042;28;20194;-58
2024/03/03 04:06:14;;;;;;;24.43;17.40;;;15.50;53.40;;;;;;5010104;28;20210;-59
2024/03/03 04:08:40;;;;;;;21.77;16.93;;;15.60;53.30;;;;;;5003736;28;20680;-58
2024/03/03 04:11:07;;;;;;;25.77;18.03;;;15.50;53.20;;;;;;5004424;28;20444;-62
2024/03/03 04:13:33;;;;;;;28.60;18.47;;;15.50;53.30;;;;;;5003151;28;20540;-61
2024/03/03 04:15:58;;;;;;;24.90;18.17;;;15.60;53.20;;;;;;5001648;28;20568;-59
2024/03/03 04:18:24;;;;;;;26.57;19.20;;;15.60;52.20;;;;;;5002903;28;20695;-60
2024/03/03 04:20:49;;;;;;;25.97;18.90;;;15.60;52.10;;;;;;5002461;28;20182;-61
2024/03/03 04:23:17;;;;;;;28.60;18.90;;;15.50;51.90;;;;;;5003453;28;20182;-59
2024/03/03 04:25:43;;;;;;;23.87;17.60;;;15.50;51.90;;;;;;5001717;28;20193;-58
2024/03/03 04:28:10;;;;;;;27.03;19.10;;;15.60;52.00;;;;;;5003284;28;20448;-60
2024/03/03 04:30:36;;;;;;;26.53;19.00;;;15.60;51.90;;;;;;5003147;28;20190;-62
2024/03/03 04:33:02;;;;;;;23.20;18.30;;;15.60;51.60;;;;;;5003547;28;20440;-56
2024/03/03 04:35:28;;;;;;;25.70;18.03;;;15.50;51.50;;;;;;5002487;28;20487;-60
2024/03/03 04:37:53;;;;;;;26.40;18.30;;;15.40;51.30;;;;;;5003413;28;20964;-57
2024/03/03 04:40:19;;;;;;;27.63;19.10;;;15.30;51.60;;;;;;5002189;28;20186;-59
2024/03/03 04:42:46;;;;;;;25.70;18.47;;;15.20;51.50;;;;;;5004986;28;20670;-60
2024/03/03 04:45:11;;;;;;;25.17;18.03;;;15.10;51.70;;;;;;5005866;28;20190;-58
2024/03/03 04:47:37;;;;;;;25.73;17.40;;;15.10;51.80;;;;;;5010121;28;20441;-59
2024/03/03 04:50:03;;;;;;;27.37;17.63;;;15.10;51.80;;;;;;5009625;28;20276;-59
2024/03/03 04:52:28;;;;;;;23.77;18.17;;;15.10;52.00;;;;;;5009392;28;20201;-60
2024/03/03 04:54:54;;;;;;;26.43;18.87;;;15.10;51.80;;;;;;5001389;28;20488;-62
2024/03/03 04:57:19;;;;;;;26.67;18.73;;;15.00;51.90;;;;;;5003702;28;20932;-59
2024/03/03 04:59:45;;;;;;;23.17;17.40;;;14.80;52.20;;;;;;5002695;28;20190;-59
2024/03/03 05:02:11;;;;;;;23.50;16.30;;;14.60;52.50;;;;;;5002570;28;20182;-60
2024/03/03 05:04:37;;;;;;;25.03;18.90;;;14.50;53.40;;;;;;5002750;28;20185;-54
2024/03/03 05:07:03;;;;;;;25.77;19.07;;;14.40;54.10;;;;;;5001696;28;20213;-60
2024/03/03 05:09:28;;;;;;;30.03;19.83;;;14.40;53.80;;;;;;5000738;28;20832;-55
2024/03/03 05:11:54;;;;;;;24.57;17.10;;;14.50;53.40;;;;;;5002764;28;20194;-58
2024/03/03 05:14:19;;;;;;;23.70;17.00;;;14.60;53.20;;;;;;5008044;28;20198;-58
2024/03/03 05:16:45;;;;;;;25.97;18.37;;;14.70;53.00;;;;;;5008326;28;20214;-58
2024/03/03 05:19:11;;;;;;;24.43;18.17;;;14.70;52.80;;;;;;5003801;28;20276;-59
2024/03/03 05:21:36;;;;;;;24.87;17.90;;;14.80;52.80;;;;;;5008899;28;20209;-56
2024/03/03 05:24:02;;;;;;;25.73;18.07;;;14.80;52.50;;;;;;5005215;28;20302;-59
2024/03/03 05:26:28;;;;;;;28.67;19.17;;;14.80;52.20;;;;;;5007827;28;20255;-61
2024/03/03 05:28:54;;;;;;;45.37;27.67;;;14.70;52.10;;;;;;5007465;28;20186;-58
2024/03/03 05:31:19;;;;;;;37.10;24.30;;;14.60;52.20;;;;;;5008508;28;20194;-59
2024/03/03 05:33:45;;;;;;;33.67;20.53;;;14.50;52.10;;;;;;5007240;28;20213;-57
2024/03/03 05:36:12;;;;;;;29.13;18.70;;;14.40;52.20;;;;;;5008177;28;20644;-60
2024/03/03 05:38:39;;;;;;;29.60;20.47;;;14.30;52.30;;;;;;5002643;28;20198;-59
2024/03/03 05:41:05;;;;;;;30.33;20.27;;;14.20;52.50;;;;;;5005684;28;20868;-57
2024/03/03 05:43:31;;;;;;;28.93;19.07;;;14.10;52.80;;;;;;5006688;28;20447;-62
2024/03/03 05:45:56;;;;;;;25.10;17.50;;;14.20;53.10;;;;;;5006117;28;20192;-60
2024/03/03 05:48:22;;;;;;;26.47;17.80;;;14.20;53.20;;;;;;5008386;28;20189;-60
2024/03/03 05:50:47;;;;;;;27.50;18.00;;;14.20;52.80;;;;;;5001598;28;20244;-60
2024/03/03 05:53:13;;;;;;;26.57;17.97;;;14.20;52.50;;;;;;5002789;28;20193;-61
2024/03/03 05:55:39;;;;;;;24.30;17.50;;;14.20;52.50;;;;;;5000886;28;20225;-60
2024/03/03 05:58:04;;;;;;;26.67;18.93;;;14.20;52.00;;;;;;5001529;28;20206;-57
2024/03/03 06:00:30;;;;;;;25.93;17.77;;;14.20;52.00;;;;;;5001908;28;20186;-61
2024/03/03 06:02:55;;;;;;;25.33;18.07;;;14.10;51.90;;;;;;5003007;28;20186;-61
2024/03/03 06:05:21;;;;;;;27.87;20.50;;;14.10;52.00;;;;;;5004364;28;20193;-59
2024/03/03 06:07:46;;;;;;;24.80;18.40;;;14.10;51.90;;;;;;5004626;28;20213;-61
2024/03/03 06:10:12;;;;;;;25.07;18.13;;;14.10;51.80;;;;;;5012673;28;20349;-60
2024/03/03 06:12:38;;;;;;;24.87;17.50;;;14.00;52.10;;;;;;5008671;28;20186;-61
2024/03/03 06:15:05;;;;;;;22.87;16.83;;;13.90;52.30;;;;;;5011898;28;20267;-60
2024/03/03 06:17:31;;;;;;;26.40;17.70;;;13.90;52.90;;;;;;5012243;28;20221;-62
2024/03/03 06:19:56;;;;;;;24.57;17.80;;;13.80;53.30;;;;;;5010379;28;20833;-59
2024/03/03 06:22:22;;;;;;;27.63;18.40;;;13.90;53.60;;;;;;5011772;28;20713;-60
2024/03/03 06:24:47;;;;;;;28.40;18.77;;;13.90;53.30;;;;;;5006578;28;20665;-59
2024/03/03 06:27:13;;;;;;;29.50;19.37;;;13.90;53.00;;;;;;5005074;28;20237;-58
2024/03/03 06:29:39;;;;;;;37.23;19.60;;;13.90;53.60;;;;;;5008163;28;20281;-59
2024/03/03 06:32:04;;;;;;;29.17;16.90;;;13.80;53.00;;;;;;5008482;28;20217;-59
2024/03/03 06:34:30;;;;;;;26.73;19.33;;;13.80;53.00;;;;;;5005308;28;20564;-62
2024/03/03 06:36:55;;;;;;;31.40;20.10;;;13.80;53.10;;;;;;5008818;28;20232;-61
2024/03/03 06:39:21;;;;;;;26.03;17.50;;;13.50;54.10;;;;;;5005077;28;20206;-58
2024/03/03 06:41:47;;;;;;;24.57;18.17;;;13.00;54.60;;;;;;5003643;28;20201;-60
2024/03/03 06:44:16;;;;;;;26.53;17.10;;;13.00;55.60;;;;;;5004381;28;20568;-61
2024/03/03 06:46:45;;;;;;;26.40;18.43;;;13.00;55.30;;;;;;5003429;28;20213;-60
2024/03/03 06:49:11;;;;;;;36.20;21.83;;;13.10;55.40;;;;;;5003270;28;20443;-60
2024/03/03 06:51:37;;;;;;;30.40;19.20;;;13.40;54.80;;;;;;5004761;28;20429;-61
2024/03/03 06:54:03;;;;;;;31.60;20.20;;;13.60;54.60;;;;;;5007753;28;20429;-59
2024/03/03 06:56:29;;;;;;;39.13;22.33;;;13.80;53.80;;;;;;5010768;28;20926;-59
2024/03/03 06:58:54;;;;;;;27.90;18.23;;;14.00;53.70;;;;;;5007415;28;20436;-61
2024/03/03 07:01:20;;;;;;;29.60;19.43;;;14.10;53.40;;;;;;5010655;28;20182;-57
2024/03/03 07:04:13;;;;;;;24.27;18.23;;;14.20;53.10;;;;;;5011516;28;20193;-60
2024/03/03 07:06:40;;;;;;;29.40;19.30;;;14.40;52.70;;;;;;5009553;28;20214;-60
2024/03/03 07:09:08;;;;;;;25.70;18.77;;;14.50;52.30;;;;;;5009251;28;20799;-57
2024/03/03 07:11:33;;;;;;;25.27;18.50;;;14.70;52.60;;;;;;5006761;28;20840;-61
2024/03/03 07:13:59;;;;;;;24.30;17.67;;;14.90;52.50;;;;;;5006857;28;20445;-58
2024/03/03 07:16:24;;;;;;;21.97;16.50;;;15.10;52.50;;;;;;5006258;28;20224;-59
2024/03/03 07:18:50;;;;;;;24.53;16.97;;;15.10;52.60;;;;;;5008947;28;20200;-59
2024/03/03 07:21:16;;;;;;;23.50;16.30;;;14.90;52.90;;;;;;5008807;28;20178;-59
2024/03/03 07:23:41;;;;;;;22.63;16.87;;;15.00;53.50;;;;;;5010242;28;20202;-60
2024/03/03 07:26:07;;;;;;;23.40;17.80;;;15.10;53.30;;;;;;5009265;28;20678;-60
2024/03/03 07:28:32;;;;;;;19.53;14.90;;;15.30;52.70;;;;;;5010799;28;20178;-57
2024/03/03 07:30:58;;;;;;;21.50;16.10;;;15.30;52.60;;;;;;5009189;28;20269;-58
2024/03/03 07:33:23;;;;;;;24.87;17.73;;;15.30;52.80;;;;;;5005439;28;20610;-61
2024/03/03 07:35:49;;;;;;;22.33;17.63;;;15.40;52.90;;;;;;5005536;28;20300;-61
2024/03/03 07:38:15;;;;;;;22.53;17.43;;;15.50;52.70;;;;;;5006429;28;20174;-59
2024/03/03 07:40:41;;;;;;;22.17;16.93;;;15.60;52.50;;;;;;5009382;28;20178;-58
2024/03/03 07:43:07;;;;;;;19.13;16.20;;;15.70;52.60;;;;;;5010385;28;20853;-59
2024/03/03 07:45:32;;;;;;;20.97;16.77;;;15.80;52.30;;;;;;5006831;28;20207;-60
2024/03/03 07:47:58;;;;;;;22.77;16.97;;;15.60;52.00;;;;;;5010848;28;20309;-58
2024/03/03 07:50:23;;;;;;;21.60;16.87;;;15.80;52.40;;;;;;5012857;28;20642;-58
2024/03/03 07:52:49;;;;;;;19.67;16.57;;;16.00;51.80;;;;;;5011492;28;20789;-60
2024/03/03 07:55:15;;;;;;;21.80;16.27;;;16.20;51.60;;;;;;5006958;28;20218;-59
2024/03/03 07:57:41;;;;;;;20.80;16.60;;;16.20;51.50;;;;;;5007552;28;20328;-58
2024/03/03 08:00:07;;;;;;;18.23;15.00;;;16.30;51.40;;;;;;5011908;28;20437;-56
2024/03/03 08:02:33;;;;;;;21.73;17.70;;;16.20;51.50;;;;;;5009162;28;20285;-57
2024/03/03 08:04:59;;;;;;;20.53;16.10;;;16.30;51.50;;;;;;5004193;28;20529;-59
2024/03/03 08:07:24;;;;;;;25.27;17.90;;;16.10;51.60;;;;;;5014332;28;20237;-58
2024/03/03 08:09:51;;;;;;;20.67;15.47;;;16.10;51.80;;;;;;5003759;28;20449;-59
2024/03/03 08:12:17;;;;;;;21.50;16.30;;;15.90;52.00;;;;;;5003545;28;20690;-60
2024/03/03 08:14:42;;;;;;;18.87;15.13;;;15.90;52.20;;;;;;5018541;28;20456;-60
2024/03/03 08:17:08;;;;;;;22.77;16.50;;;16.00;52.20;;;;;;5005927;28;20210;-57
2024/03/03 08:19:33;;;;;;;21.57;16.63;;;16.10;52.20;;;;;;5008320;28;20197;-60
2024/03/03 08:21:59;;;;;;;19.73;14.67;;;15.90;52.30;;;;;;5010508;28;20244;-61
2024/03/03 08:24:25;;;;;;;20.70;14.40;;;16.00;52.20;;;;;;5009627;28;20222;-60
2024/03/03 08:26:50;;;;;;;20.20;14.73;;;16.00;52.10;;;;;;5007750;28;20214;-60
2024/03/03 08:29:17;;;;;;;18.03;14.60;;;16.20;52.00;;;;;;5010449;28;20212;-58
2024/03/03 08:31:44;;;;;;;16.50;13.23;;;16.30;51.60;;;;;;5008963;28;20208;-57
2024/03/03 08:34:10;;;;;;;16.27;14.00;;;16.30;51.40;;;;;;5010188;28;20472;-57
2024/03/03 08:36:36;;;;;;;16.63;13.60;;;15.90;51.70;;;;;;5009715;28;20499;-59
2024/03/03 08:39:03;;;;;;;16.73;13.40;;;15.30;52.80;;;;;;5006264;28;20441;-60
2024/03/03 08:41:28;;;;;;;19.33;14.67;;;15.40;53.10;;;;;;5007640;28;20198;-57
2024/03/03 08:43:54;;;;;;;20.40;14.50;;;15.50;53.20;;;;;;5010808;28;20620;-60
2024/03/03 08:46:20;;;;;;;15.20;12.20;;;15.80;52.70;;;;;;5008146;28;20235;-58
2024/03/03 08:48:45;;;;;;;16.57;13.60;;;15.80;52.30;;;;;;5008141;28;20194;-56
2024/03/03 08:51:11;;;;;;;14.50;12.37;;;16.00;51.90;;;;;;5010569;28;20301;-56
2024/03/03 08:53:36;;;;;;;13.30;11.83;;;16.20;51.60;;;;;;5009835;28;20252;-57
2024/03/03 08:56:02;;;;;;;15.93;12.87;;;16.20;51.60;;;;;;5008848;28;20275;-57
2024/03/03 08:58:28;;;;;;;15.83;11.80;;;16.20;51.50;;;;;;5006382;28;20273;-63
2024/03/03 09:00:53;;;;;;;15.47;12.33;;;16.30;51.00;;;;;;5002164;28;20197;-58
2024/03/03 09:03:19;;;;;;;14.70;11.90;;;16.30;51.20;;;;;;5008042;28;20217;-58
2024/03/03 09:05:44;;;;;;;14.20;11.93;;;16.50;51.10;;;;;;5004832;28;20182;-58
2024/03/03 09:08:10;;;;;;;14.27;12.50;;;16.60;50.90;;;;;;5007808;28;20731;-58
2024/03/03 09:10:36;;;;;;;15.57;12.77;;;16.50;50.80;;;;;;5006212;28;20240;-58
2024/03/03 09:13:02;;;;;;;11.90;10.70;;;16.40;50.90;;;;;;5006687;28;20240;-56
2024/03/03 09:15:27;;;;;;;13.13;11.40;;;16.50;50.80;;;;;;5006771;28;20252;-55
2024/03/03 09:17:53;;;;;;;13.00;10.87;;;16.60;50.70;;;;;;5007535;28;20464;-62
2024/03/03 09:20:18;;;;;;;12.53;10.57;;;16.80;50.30;;;;;;5010894;28;20186;-59
2024/03/03 09:22:44;;;;;;;13.63;10.57;;;16.90;49.70;;;;;;5008904;28;20189;-60
2024/03/03 09:25:09;;;;;;;11.60;10.40;;;16.90;49.90;;;;;;5004485;28;20202;-57
2024/03/03 09:27:35;;;;;;;12.53;10.33;;;17.10;49.70;;;;;;5003802;28;20294;-58
2024/03/03 09:30:01;;;;;;;10.53;9.53;;;17.30;49.30;;;;;;5007096;28;20189;-62
2024/03/03 09:32:27;;;;;;;12.27;10.50;;;17.60;49.00;;;;;;5007291;28;20194;-62
2024/03/03 09:34:52;;;;;;;11.10;9.97;;;17.80;48.70;;;;;;5004403;28;20488;-63
2024/03/03 09:37:18;;;;;;;12.43;9.83;;;17.90;48.50;;;;;;5004979;28;20696;-61
2024/03/03 09:39:43;;;;;;;10.70;9.30;;;18.20;48.50;;;;;;5006316;28;20682;-60
2024/03/03 09:42:09;;;;;;;10.43;8.60;;;18.40;48.30;;;;;;5007547;28;20619;-59
2024/03/03 09:44:42;;;;;;;8.93;8.10;;;18.50;47.40;;;;;;5005635;28;20653;-61
2024/03/03 09:47:10;;;;;;;10.07;8.10;;;18.60;46.10;;;;;;5005724;28;20202;-60
2024/03/03 09:49:38;;;;;;;9.53;8.53;;;18.80;46.50;;;;;;5008044;28;21073;-59
2024/03/03 09:52:08;;;;;;;9.77;7.43;;;19.00;46.10;;;;;;5006967;28;20460;-58
2024/03/03 09:54:36;;;;;;;9.37;8.40;;;19.20;45.90;;;;;;5004693;28;20483;-61
2024/03/03 09:57:03;;;;;;;12.73;8.30;;;19.40;45.70;;;;;;5005443;28;21154;-57
2024/03/03 09:59:29;;;;;;;8.47;7.43;;;19.40;44.70;;;;;;5006789;28;20420;-60
2024/03/03 10:01:55;;;;;;;7.57;6.80;;;19.40;44.10;;;;;;5006488;28;20425;-60
2024/03/03 10:04:22;;;;;;;7.93;7.13;;;19.40;44.70;;;;;;5006813;28;20236;-59
2024/03/03 10:06:51;;;;;;;8.07;7.27;;;19.60;44.00;;;;;;5006023;28;20460;-56
2024/03/03 10:09:18;;;;;;;8.30;7.50;;;20.00;44.20;;;;;;5007314;28;20436;-61
2024/03/03 10:11:44;;;;;;;7.63;6.93;;;20.30;43.50;;;;;;5006034;28;20818;-61
2024/03/03 10:14:13;;;;;;;7.23;6.53;;;20.50;42.60;;;;;;5007373;28;20444;-58
2024/03/03 10:16:40;;;;;;;7.77;7.07;;;20.50;43.00;;;;;;5013479;28;21007;-62
2024/03/03 10:19:06;;;;;;;8.03;7.20;;;20.70;42.30;;;;;;5009783;28;20421;-57
2024/03/03 10:21:37;;;;;;;7.10;6.50;;;20.90;42.40;;;;;;5008304;28;20495;-58
2024/03/03 10:24:35;;;;;;;13.50;6.13;;;20.90;41.40;;;;;;5012377;28;20440;-62
2024/03/03 10:27:02;;;;;;;7.20;6.53;;;20.50;42.80;;;;;;4983134;28;20948;-61
2024/03/03 10:29:28;;;;;;;6.50;5.90;;;20.70;42.70;;;;;;5008102;28;20466;-60
2024/03/03 10:31:57;;;;;;;7.40;6.77;;;21.00;42.10;;;;;;5002975;28;20441;-62
2024/03/03 10:34:23;;;;;;;6.30;5.70;;;21.20;41.60;;;;;;5003650;28;20193;-56
2024/03/03 10:37:00;;;;;;;6.37;5.63;;;21.10;41.00;;;;;;5005562;28;20487;-60
2024/03/03 10:39:25;;;;;;;6.33;5.73;;;20.60;41.60;;;;;;5007148;28;20987;-59
2024/03/03 10:41:51;;;;;;;6.10;5.50;;;20.60;42.40;;;;;;5000679;28;20449;-63
2024/03/03 10:44:17;;;;;;;6.70;5.60;;;20.90;41.80;;;;;;5004606;28;20222;-59
2024/03/03 10:46:45;;;;;;;6.20;5.60;;;21.30;41.90;;;;;;5005302;28;20694;-63
2024/03/03 10:49:14;;;;;;;5.50;5.00;;;21.50;41.50;;;;;;5003956;28;21018;-59
2024/03/03 10:51:39;;;;;;;6.07;5.57;;;21.60;41.50;;;;;;5004622;28;20444;-63
2024/03/03 10:54:05;;;;;;;5.30;4.80;;;21.60;41.70;;;;;;5008632;28;20443;-60
2024/03/03 10:56:33;;;;;;;6.00;5.50;;;21.80;41.20;;;;;;5011138;28;20245;-61
2024/03/03 10:59:01;;;;;;;5.20;4.70;;;22.00;41.00;;;;;;5009969;28;20437;-60
2024/03/03 11:01:27;;;;;;;7.90;4.80;;;22.20;40.40;;;;;;5009934;28;20496;-62
2024/03/03 11:03:55;;;;;;;5.53;5.03;;;22.50;40.10;;;;;;5010479;28;20444;-63
2024/03/03 11:06:22;;;;;;;6.00;5.50;;;22.50;41.00;;;;;;5011916;28;20980;-60
2024/03/03 11:08:52;;;;;;;7.10;6.40;;;22.70;41.70;;;;;;5011080;28;20432;-61
2024/03/03 11:11:25;;;;;;;6.63;6.03;;;22.90;41.40;;;;;;5010136;28;20447;-60
2024/03/03 11:14:09;;;;;;;5.80;5.30;;;23.00;41.20;;;;;;5008504;28;20494;-62
2024/03/03 11:16:37;;;;;;;5.33;4.83;;;23.10;40.80;;;;;;5004209;28;20480;-59
2024/03/03 11:19:03;;;;;;;5.80;5.30;;;23.00;38.80;;;;;;5006381;28;20441;-62
2024/03/03 11:21:35;;;;;;;3.40;3.20;;;22.80;40.90;;;;;;5011269;28;20559;-62
2024/03/03 11:24:06;;;;;;;3.87;3.57;;;22.70;37.90;;;;;;5010698;28;20515;-62
2024/03/03 11:26:42;;;;;;;3.93;3.63;;;22.90;37.30;;;;;;5008869;28;20465;-62
2024/03/03 11:29:09;;;;;;;3.33;3.03;;;22.80;37.80;;;;;;5011334;28;20951;-61
2024/03/03 11:31:36;;;;;;;4.90;3.23;;;22.90;37.60;;;;;;5010508;28;20440;-63
2024/03/03 11:34:03;;;;;;;3.63;3.33;;;23.00;38.70;;;;;;5009388;28;20460;-62
2024/03/03 11:36:30;;;;;;;4.30;2.60;;;23.00;38.40;;;;;;5004992;28;20526;-63
2024/03/03 11:39:09;;;;;;;2.67;2.47;;;23.20;38.60;;;;;;5009741;28;20491;-60
2024/03/03 11:41:38;;;;;;;4.20;2.40;;;23.60;37.30;;;;;;5009234;28;20523;-62
2024/03/03 11:44:05;;;;;;;2.73;2.30;;;23.90;36.60;;;;;;5009434;28;20441;-62
2024/03/03 11:46:49;;;;;;;2.57;2.37;;;23.90;35.80;;;;;;5007781;28;20461;-63
2024/03/03 11:49:16;;;;;;;4.47;2.50;;;24.00;34.60;;;;;;5009044;28;20529;-62
2024/03/03 11:51:42;;;;;;;2.80;2.60;;;23.90;35.30;;;;;;5008863;28;20528;-61
2024/03/03 11:54:08;;;;;;;2.80;2.03;;;24.10;34.20;;;;;;5007156;28;21016;-62
2024/03/03 11:56:49;;;;;;;2.47;2.27;;;24.20;35.20;;;;;;5006250;28;20309;-62
2024/03/03 11:59:15;;;;;;;3.30;2.60;;;23.70;33.70;;;;;;5007295;28;20185;-62
2024/03/03 12:01:46;;;;;;;2.40;2.20;;;23.50;34.80;;;;;;5009663;28;20487;-61
2024/03/03 12:04:13;;;;;;;2.83;2.63;;;23.50;34.30;;;;;;5007694;28;21336;-62
2024/03/03 12:06:42;;;;;;;2.40;2.20;;;23.80;35.20;;;;;;5009928;28;20465;-62
2024/03/03 12:09:10;;;;;;;2.70;2.50;;;23.80;35.60;;;;;;5008716;28;20814;-59
2024/03/03 12:11:35;;;;;;;2.30;2.10;;;24.00;34.10;;;;;;5007666;28;20911;-62
2024/03/03 12:14:01;;;;;;;2.73;2.53;;;24.10;34.80;;;;;;5008226;28;20532;-63
2024/03/03 12:16:29;;;;;;;2.50;2.30;;;24.40;34.90;;;;;;5005483;28;20574;-62
2024/03/03 12:18:54;;;;;;;3.00;2.80;;;24.70;33.70;;;;;;5004146;28;20182;-61
2024/03/03 12:21:20;;;;;;;2.90;2.60;;;24.60;34.50;;;;;;5010158;28;20445;-62
2024/03/03 12:23:46;;;;;;;2.90;2.67;;;24.70;33.90;;;;;;5007660;28;20204;-61
2024/03/03 12:26:12;;;;;;;2.10;2.00;;;24.80;33.80;;;;;;5005554;28;20214;-61